createdAt,value
2019-05-29T00:00:18.286Z,8.70
2019-05-29T00:02:47.749Z,8.80
2019-05-29T00:05:18.311Z,8.80
2019-05-29T00:07:47.726Z,8.80
2019-05-29T00:10:17.095Z,8.90
2019-05-29T00:12:46.433Z,9.00
2019-05-29T00:15:15.983Z,9.00
2019-05-29T00:17:45.340Z,8.90
2019-05-29T00:20:14.786Z,8.90
2019-05-29T00:22:44.127Z,8.80
2019-05-29T00:25:14.501Z,8.80
2019-05-29T00:27:44.112Z,8.80
2019-05-29T00:30:14.987Z,8.70
2019-05-29T00:32:44.335Z,8.70
2019-05-29T00:35:14.342Z,8.60
2019-05-29T00:37:43.885Z,8.60
2019-05-29T00:40:15.076Z,8.60
2019-05-29T00:42:44.422Z,8.50
2019-05-29T00:45:15.497Z,8.50
2019-05-29T00:47:45.021Z,8.50
2019-05-29T00:50:14.524Z,8.40
2019-05-29T00:52:43.867Z,8.30
2019-05-29T00:55:13.152Z,8.30
2019-05-29T00:57:42.512Z,8.20
2019-05-29T01:00:11.867Z,8.20
2019-05-29T01:02:41.667Z,8.10
2019-05-29T01:05:12.017Z,8.10
2019-05-29T01:07:41.419Z,8.10
2019-05-29T01:10:13.009Z,8.10
2019-05-29T01:12:42.481Z,8.10
2019-05-29T01:15:13.316Z,8.10
2019-05-29T01:17:42.673Z,8.10
2019-05-29T01:20:12.126Z,8.10
2019-05-29T01:22:41.450Z,8.00
2019-05-29T01:25:12.377Z,8.00
2019-05-29T01:27:41.687Z,8.00
2019-05-29T01:30:11.057Z,7.90
2019-05-29T01:32:40.403Z,7.70
2019-05-29T01:35:09.846Z,7.60
2019-05-29T01:37:39.179Z,7.60
2019-05-29T01:40:19.212Z,7.60
2019-05-29T01:42:39.525Z,7.60
2019-05-29T01:45:08.983Z,7.60
2019-05-29T01:47:38.448Z,7.60
2019-05-29T01:50:08.099Z,7.60
2019-05-29T01:52:37.455Z,7.50
2019-05-29T01:55:06.988Z,7.60
2019-05-29T01:57:36.302Z,7.60
2019-05-29T02:00:06.211Z,7.60
2019-05-29T02:02:35.546Z,7.60
2019-05-29T02:05:05.281Z,7.60
2019-05-29T02:07:34.645Z,7.60
2019-05-29T02:10:04.024Z,7.50
2019-05-29T02:12:33.369Z,7.50
2019-05-29T02:15:02.726Z,7.40
2019-05-29T02:17:32.064Z,7.30
2019-05-29T02:20:01.422Z,7.30
2019-05-29T02:22:30.764Z,7.30
2019-05-29T02:25:00.129Z,7.30
2019-05-29T02:27:29.466Z,7.30
2019-05-29T02:29:58.831Z,7.40
2019-05-29T02:32:28.173Z,7.40
2019-05-29T02:34:57.516Z,7.50
2019-05-29T02:37:28.738Z,7.50
2019-05-29T02:39:57.848Z,7.60
2019-05-29T02:42:27.212Z,7.60
2019-05-29T02:44:56.540Z,7.60
2019-05-29T02:47:26.137Z,7.50
2019-05-29T02:49:57.087Z,7.50
2019-05-29T02:52:26.542Z,7.50
2019-05-29T02:54:57.499Z,7.50
2019-05-29T02:57:27.083Z,7.50
2019-05-29T02:59:56.490Z,7.50
2019-05-29T03:02:27.783Z,7.50
2019-05-29T03:04:56.826Z,7.50
2019-05-29T03:07:26.517Z,7.50
2019-05-29T03:09:56.329Z,7.60
2019-05-29T03:12:27.057Z,7.60
2019-05-29T03:14:56.516Z,7.60
2019-05-29T03:17:27.711Z,7.60
2019-05-29T03:19:56.804Z,7.70
2019-05-29T03:22:26.338Z,7.70
2019-05-29T03:24:55.703Z,7.70
2019-05-29T03:27:25.671Z,7.70
2019-05-29T03:29:55.107Z,7.80
2019-05-29T03:32:27.050Z,7.80
2019-05-29T03:34:55.524Z,7.90
2019-05-29T03:37:26.279Z,8.00
2019-05-29T03:39:55.707Z,8.10
2019-05-29T03:42:26.388Z,8.10
2019-05-29T03:44:55.787Z,8.20
2019-05-29T03:47:26.797Z,8.30
2019-05-29T03:49:56.392Z,8.40
2019-05-29T03:52:26.357Z,8.40
2019-05-29T03:54:56.305Z,8.50
2019-05-29T03:57:27.474Z,8.60
2019-05-29T03:59:56.729Z,8.60
2019-05-29T04:02:26.726Z,8.70
2019-05-29T04:04:56.083Z,8.70
2019-05-29T04:07:26.783Z,8.70
2019-05-29T04:09:56.238Z,8.80
2019-05-29T04:12:26.957Z,8.80
2019-05-29T04:14:56.412Z,8.80
2019-05-29T04:17:27.289Z,8.90
2019-05-29T04:19:56.836Z,8.90
2019-05-29T04:22:30.902Z,8.80
2019-05-29T04:25:03.264Z,8.90
2019-05-29T04:27:36.060Z,8.90
2019-05-29T04:30:06.096Z,9.00
2019-05-29T04:32:36.588Z,9.10
2019-05-29T04:35:06.466Z,9.10
2019-05-29T04:37:37.022Z,9.20
2019-05-29T04:40:07.361Z,9.20
2019-05-29T04:42:37.547Z,9.20
2019-05-29T04:45:08.009Z,9.30
2019-05-29T04:47:37.517Z,9.30
2019-05-29T04:50:08.891Z,9.40
2019-05-29T04:52:39.882Z,9.60
2019-05-29T04:55:09.361Z,9.70
2019-05-29T04:57:39.235Z,9.80
2019-05-29T05:00:09.235Z,9.80
2019-05-29T05:02:39.457Z,9.90
2019-05-29T05:05:09.613Z,9.90
2019-05-29T05:07:39.662Z,10.00
2019-05-29T05:10:09.700Z,10.00
2019-05-29T05:12:40.081Z,10.10
2019-05-29T05:15:09.980Z,10.20
2019-05-29T05:17:40.109Z,10.20
2019-05-29T05:20:09.947Z,10.20
2019-05-29T05:22:40.955Z,10.30
2019-05-29T05:25:10.638Z,10.40
2019-05-29T05:27:40.685Z,10.50
2019-05-29T05:30:10.428Z,10.60
2019-05-29T05:32:40.943Z,10.70
2019-05-29T05:35:14.182Z,10.80
2019-05-29T05:37:41.634Z,10.80
2019-05-29T05:40:11.141Z,10.90
2019-05-29T05:42:41.282Z,11.00
2019-05-29T05:45:11.520Z,11.10
2019-05-29T05:47:53.607Z,11.10
2019-05-29T05:50:12.151Z,11.20
2019-05-29T05:52:41.698Z,11.30
2019-05-29T05:55:11.260Z,11.40
2019-05-29T05:57:41.759Z,11.50
2019-05-29T06:00:12.304Z,11.70
2019-05-29T06:02:42.166Z,11.80
2019-05-29T06:05:11.698Z,11.90
2019-05-29T06:07:42.315Z,12.00
2019-05-29T06:10:11.899Z,12.00
2019-05-29T06:12:42.733Z,12.00
2019-05-29T06:15:12.290Z,12.10
2019-05-29T06:17:51.437Z,12.20
2019-05-29T06:20:13.139Z,12.30
2019-05-29T06:22:43.664Z,12.70
2019-05-29T06:25:13.323Z,13.40
2019-05-29T06:27:43.351Z,13.80
2019-05-29T06:30:12.941Z,14.10
2019-05-29T06:32:43.523Z,14.30
2019-05-29T06:35:13.139Z,14.80
2019-05-29T06:37:43.663Z,14.70
2019-05-29T06:40:14.707Z,14.40
2019-05-29T06:42:44.096Z,14.00
2019-05-29T06:45:15.259Z,13.70
2019-05-29T06:47:44.699Z,13.70
2019-05-29T06:50:14.161Z,13.50
2019-05-29T06:52:43.630Z,13.50
2019-05-29T06:55:13.040Z,13.40
2019-05-29T06:57:42.724Z,13.40
2019-05-29T07:00:13.454Z,13.40
2019-05-29T07:02:42.848Z,13.40
2019-05-29T07:05:12.414Z,13.20
2019-05-29T07:07:42.447Z,13.10
2019-05-29T07:10:12.026Z,13.10
2019-05-29T07:12:42.411Z,13.10
2019-05-29T07:15:12.227Z,13.20
2019-05-29T07:17:42.562Z,13.30
2019-05-29T07:20:12.202Z,13.30
2019-05-29T07:22:42.744Z,13.40
2019-05-29T07:25:12.308Z,13.30
2019-05-29T07:27:42.816Z,13.30
2019-05-29T07:30:12.883Z,13.30
2019-05-29T07:32:43.286Z,13.30
2019-05-29T07:35:13.426Z,13.30
2019-05-29T07:37:43.825Z,13.40
2019-05-29T07:40:13.555Z,13.60
2019-05-29T07:42:50.144Z,13.70
2019-05-29T07:45:14.454Z,13.80
2019-05-29T07:47:44.717Z,13.90
2019-05-29T07:50:14.807Z,14.00
2019-05-29T07:52:45.362Z,13.90
2019-05-29T07:55:15.662Z,13.90
2019-05-29T07:57:45.036Z,13.90
2019-05-29T08:00:14.839Z,13.90
2019-05-29T08:02:45.409Z,13.90
2019-05-29T08:05:16.264Z,13.90
2019-05-29T08:07:45.666Z,14.00
2019-05-29T08:10:16.168Z,14.20
2019-05-29T08:12:50.503Z,14.30
2019-05-29T08:15:16.600Z,14.40
2019-05-29T08:17:46.257Z,14.60
2019-05-29T08:20:15.871Z,14.80
2019-05-29T08:22:46.312Z,14.90
2019-05-29T08:25:15.924Z,14.90
2019-05-29T08:27:46.578Z,14.80
2019-05-29T08:30:16.499Z,14.70
2019-05-29T08:32:46.924Z,14.60
2019-05-29T08:35:16.399Z,14.50
2019-05-29T08:37:46.924Z,14.40
2019-05-29T08:40:17.972Z,14.40
2019-05-29T08:42:47.439Z,14.40
2019-05-29T08:45:16.874Z,14.60
2019-05-29T08:47:46.253Z,14.90
2019-05-29T08:50:18.525Z,15.50
2019-05-29T08:52:48.096Z,16.20
2019-05-29T08:55:17.514Z,16.70
2019-05-29T08:57:48.269Z,16.90
2019-05-29T09:00:18.499Z,17.10
2019-05-29T09:02:49.231Z,17.10
2019-05-29T09:05:18.991Z,17.10
2019-05-29T09:07:49.799Z,17.20
2019-05-29T09:10:19.424Z,17.30
2019-05-29T09:12:57.209Z,17.30
2019-05-29T09:15:21.874Z,17.30
2019-05-29T09:17:51.375Z,17.10
2019-05-29T09:20:37.142Z,16.90
2019-05-29T09:22:51.916Z,16.90
2019-05-29T09:25:24.413Z,17.00
2019-05-29T09:27:53.789Z,17.10
2019-05-29T09:30:23.597Z,17.00
2019-05-29T09:32:53.412Z,16.90
2019-05-29T09:35:24.572Z,17.00
2019-05-29T09:37:53.852Z,17.10
2019-05-29T09:40:23.252Z,17.30
2019-05-29T09:42:52.634Z,17.30
2019-05-29T09:45:22.021Z,17.40
2019-05-29T09:47:51.403Z,17.40
2019-05-29T09:50:23.131Z,17.40
2019-05-29T09:52:54.465Z,17.50
2019-05-29T09:55:22.979Z,17.60
2019-05-29T09:57:53.760Z,17.70
2019-05-29T10:00:24.028Z,17.90
2019-05-29T10:02:54.308Z,18.10
2019-05-29T10:05:24.443Z,18.10
2019-05-29T10:07:55.082Z,17.90
2019-05-29T10:10:25.266Z,17.90
2019-05-29T10:12:55.383Z,17.80
2019-05-29T10:15:26.355Z,17.90
2019-05-29T10:17:56.868Z,18.10
2019-05-29T10:20:26.427Z,18.20
2019-05-29T10:22:57.020Z,18.40
2019-05-29T10:25:26.531Z,18.20
2019-05-29T10:27:55.862Z,18.20
2019-05-29T10:30:25.572Z,18.40
2019-05-29T10:32:55.022Z,18.60
2019-05-29T10:35:24.369Z,18.60
2019-05-29T10:37:53.774Z,19.00
2019-05-29T10:40:23.242Z,19.10
2019-05-29T10:42:53.554Z,19.00
2019-05-29T10:45:23.115Z,19.40
2019-05-29T10:47:53.983Z,20.20
2019-05-29T10:50:23.537Z,20.90
2019-05-29T10:52:54.148Z,21.80
2019-05-29T10:55:24.375Z,21.90
2019-05-29T10:57:54.999Z,22.00
2019-05-29T11:00:24.664Z,22.20
2019-05-29T11:02:55.831Z,22.10
2019-05-29T11:05:25.096Z,21.80
2019-05-29T11:07:54.496Z,21.80
2019-05-29T11:10:23.892Z,21.40
2019-05-29T11:12:54.572Z,21.10
2019-05-29T11:15:24.079Z,21.00
2019-05-29T11:17:53.493Z,20.80
2019-05-29T11:20:24.406Z,20.40
2019-05-29T11:22:53.830Z,20.30
2019-05-29T11:25:27.456Z,19.90
2019-05-29T11:27:54.826Z,19.60
2019-05-29T11:30:24.425Z,19.10
2019-05-29T11:32:55.751Z,19.60
2019-05-29T11:35:24.867Z,20.30
2019-05-29T11:37:54.677Z,20.90
2019-05-29T11:40:24.155Z,21.70
2019-05-29T11:42:54.698Z,21.60
2019-05-29T11:45:24.247Z,21.20
2019-05-29T11:47:54.696Z,20.70
2019-05-29T11:50:24.700Z,20.50
2019-05-29T11:52:54.443Z,20.50
2019-05-29T11:55:23.887Z,20.70
2019-05-29T11:57:53.750Z,20.80
2019-05-29T12:00:23.921Z,20.20
2019-05-29T12:02:53.902Z,19.00
2019-05-29T12:05:24.001Z,18.50
2019-05-29T12:07:53.616Z,17.90
2019-05-29T12:10:23.031Z,17.70
2019-05-29T12:12:53.371Z,18.00
2019-05-29T12:15:22.807Z,18.50
2019-05-29T12:17:57.996Z,19.20
2019-05-29T12:20:28.056Z,18.80
2019-05-29T12:23:19.766Z,18.30
2019-05-29T12:25:25.496Z,18.40
2019-05-29T12:27:55.349Z,18.80
2019-05-29T12:30:26.458Z,18.90
2019-05-29T12:32:56.833Z,18.60
2019-05-29T12:35:26.331Z,18.70
2019-05-29T12:37:55.713Z,18.40
2019-05-29T12:40:25.198Z,18.10
2019-05-29T12:42:55.712Z,17.90
2019-05-29T12:45:25.386Z,18.20
2019-05-29T12:47:56.108Z,18.20
2019-05-29T12:50:25.900Z,17.80
2019-05-29T12:52:55.743Z,17.60
2019-05-29T12:55:25.190Z,17.70
2019-05-29T12:57:55.790Z,18.00
2019-05-29T13:00:27.074Z,18.40
2019-05-29T13:02:56.471Z,18.70
2019-05-29T13:05:26.456Z,18.60
2019-05-29T13:07:56.777Z,18.70
2019-05-29T13:10:30.916Z,18.80
2019-05-29T13:13:04.259Z,18.90
2019-05-29T13:15:29.620Z,19.40
2019-05-29T13:18:05.400Z,19.70
2019-05-29T13:20:30.063Z,20.00
2019-05-29T13:22:59.939Z,20.30
2019-05-29T13:25:29.847Z,20.10
2019-05-29T13:27:59.956Z,19.70
2019-05-29T13:30:30.281Z,19.40
2019-05-29T13:33:03.059Z,19.30
2019-05-29T13:35:30.766Z,19.10
2019-05-29T13:38:01.005Z,19.30
2019-05-29T13:40:30.482Z,19.50
2019-05-29T13:43:05.497Z,19.80
2019-05-29T13:45:30.907Z,20.00
2019-05-29T13:48:01.385Z,20.40
2019-05-29T13:50:30.917Z,20.90
2019-05-29T13:53:01.253Z,21.10
2019-05-29T13:55:30.944Z,21.10
2019-05-29T13:58:01.556Z,20.70
2019-05-29T14:00:34.242Z,20.10
2019-05-29T14:03:02.667Z,19.50
2019-05-29T14:05:32.197Z,19.50
2019-05-29T14:08:02.726Z,19.80
2019-05-29T14:10:32.172Z,19.90
2019-05-29T14:13:01.567Z,19.80
2019-05-29T14:15:31.043Z,19.20
2019-05-29T14:18:00.721Z,18.70
2019-05-29T14:20:30.219Z,18.40
2019-05-29T14:23:01.129Z,18.40
2019-05-29T14:25:30.636Z,18.40
2019-05-29T14:28:00.764Z,18.50
2019-05-29T14:30:30.220Z,18.40
2019-05-29T14:32:59.633Z,18.20
2019-05-29T14:35:29.002Z,18.20
2019-05-29T14:37:58.403Z,18.40
2019-05-29T14:40:27.786Z,18.40
2019-05-29T14:42:57.205Z,18.30
2019-05-29T14:45:26.567Z,18.40
2019-05-29T14:47:55.965Z,18.50
2019-05-29T14:50:25.358Z,18.60
2019-05-29T14:52:54.754Z,18.70
2019-05-29T14:55:24.145Z,18.80
2019-05-29T14:57:53.560Z,18.90
2019-05-29T15:00:25.684Z,19.00
2019-05-29T15:02:54.199Z,19.10
2019-05-29T15:05:23.687Z,19.20
2019-05-29T15:07:53.110Z,19.30
2019-05-29T15:10:27.262Z,19.10
2019-05-29T15:12:57.805Z,18.80
2019-05-29T15:15:24.956Z,18.70
2019-05-29T15:17:54.391Z,18.80
2019-05-29T15:20:23.771Z,18.90
2019-05-29T15:22:53.191Z,18.70
2019-05-29T15:25:24.396Z,18.80
2019-05-29T15:27:53.644Z,19.00
2019-05-29T15:30:23.983Z,19.10
2019-05-29T15:32:53.610Z,19.20
2019-05-29T15:35:22.984Z,19.10
2019-05-29T15:37:52.363Z,19.10
2019-05-29T15:40:21.755Z,18.90
2019-05-29T15:42:51.168Z,18.40
2019-05-29T15:45:21.117Z,17.90
2019-05-29T15:47:50.651Z,17.50
2019-05-29T15:50:20.175Z,17.20
2019-05-29T15:52:49.560Z,17.10
2019-05-29T15:55:29.724Z,17.20
2019-05-29T15:57:50.786Z,17.40
2019-05-29T16:00:20.343Z,17.70
2019-05-29T16:02:50.019Z,17.90
2019-05-29T16:05:19.821Z,18.10
2019-05-29T16:07:49.218Z,18.20
2019-05-29T16:10:20.930Z,18.30
2019-05-29T16:12:50.606Z,18.20
2019-05-29T16:15:20.324Z,18.10
2019-05-29T16:17:49.698Z,18.10
2019-05-29T16:20:19.323Z,18.10
2019-05-29T16:22:48.703Z,18.10
2019-05-29T16:25:19.107Z,18.10
2019-05-29T16:27:48.708Z,18.00
2019-05-29T16:30:20.088Z,18.00
2019-05-29T16:32:49.865Z,17.70
2019-05-29T16:35:19.736Z,17.40
2019-05-29T16:37:49.139Z,17.10
2019-05-29T16:40:19.953Z,16.80
2019-05-29T16:42:49.581Z,16.60
2019-05-29T16:45:20.303Z,16.50
2019-05-29T16:47:49.930Z,16.40
2019-05-29T16:50:21.171Z,16.30
2019-05-29T16:52:50.641Z,16.20
2019-05-29T16:55:21.062Z,16.10
2019-05-29T16:57:50.528Z,15.90
2019-05-29T17:00:21.491Z,15.80
2019-05-29T17:02:51.140Z,15.90
2019-05-29T17:05:22.158Z,16.10
2019-05-29T17:07:51.880Z,16.30
2019-05-29T17:10:25.405Z,16.50
2019-05-29T17:12:54.811Z,16.70
2019-05-29T17:15:24.791Z,16.90
2019-05-29T17:17:54.287Z,16.90
2019-05-29T17:20:42.118Z,17.00
2019-05-29T17:23:11.926Z,17.00
2019-05-29T17:25:41.406Z,17.00
2019-05-29T17:28:10.880Z,16.90
2019-05-29T17:30:40.268Z,16.70
2019-05-29T17:33:10.951Z,16.50
2019-05-29T17:35:40.350Z,16.30
2019-05-29T17:38:09.738Z,16.20
2019-05-29T17:40:39.134Z,16.10
2019-05-29T17:43:08.523Z,16.10
2019-05-29T17:45:37.975Z,16.10
2019-05-29T17:48:07.383Z,16.10
2019-05-29T17:50:36.795Z,16.10
2019-05-29T17:53:06.184Z,16.10
2019-05-29T17:55:35.583Z,16.00
2019-05-29T17:58:04.987Z,15.90
2019-05-29T18:00:34.379Z,15.80
2019-05-29T18:03:03.760Z,15.70
2019-05-29T18:05:36.637Z,15.60
2019-05-29T18:08:04.205Z,15.60
2019-05-29T18:10:33.609Z,15.50
2019-05-29T18:13:02.988Z,15.40
2019-05-29T18:15:32.386Z,15.30
2019-05-29T18:18:01.765Z,15.20
2019-05-29T18:20:31.155Z,15.00
2019-05-29T18:23:00.539Z,14.90
2019-05-29T18:25:29.931Z,14.70
2019-05-29T18:27:59.309Z,14.60
2019-05-29T18:30:28.933Z,14.50
2019-05-29T18:32:58.297Z,14.40
2019-05-29T18:35:27.692Z,14.20
2019-05-29T18:37:57.074Z,14.00
2019-05-29T18:40:26.493Z,13.80
2019-05-29T18:42:55.861Z,13.70
2019-05-29T18:45:26.751Z,13.60
2019-05-29T18:47:56.281Z,13.50
2019-05-29T18:50:25.736Z,13.30
2019-05-29T18:52:55.084Z,13.20
2019-05-29T18:55:24.879Z,13.00
2019-05-29T18:57:54.347Z,12.90
2019-05-29T19:00:25.248Z,12.80
2019-05-29T19:02:54.826Z,12.70
2019-05-29T19:05:25.464Z,12.60
2019-05-29T19:07:54.993Z,12.50
2019-05-29T19:10:25.545Z,12.30
2019-05-29T19:12:55.027Z,12.20
2019-05-29T19:15:24.428Z,12.00
2019-05-29T19:17:53.798Z,11.90
2019-05-29T19:20:24.258Z,11.80
2019-05-29T19:22:53.772Z,11.70
2019-05-29T19:25:24.481Z,11.60
2019-05-29T19:27:53.998Z,11.50
2019-05-29T19:30:23.374Z,11.30
2019-05-29T19:32:53.062Z,11.20
2019-05-29T19:35:23.524Z,11.10
2019-05-29T19:37:53.036Z,10.90
2019-05-29T19:40:23.916Z,10.70
2019-05-29T19:42:54.748Z,10.50
2019-05-29T19:45:24.719Z,10.40
2019-05-29T19:47:54.358Z,10.40
2019-05-29T19:50:24.667Z,10.40
2019-05-29T19:52:54.179Z,10.30
2019-05-29T19:55:23.552Z,10.30
2019-05-29T19:57:56.373Z,10.30
2019-05-29T20:00:24.067Z,10.30
2019-05-29T20:02:53.475Z,10.20
2019-05-29T20:05:22.953Z,10.20
2019-05-29T20:07:52.284Z,10.20
2019-05-29T20:10:21.664Z,10.10
2019-05-29T20:12:51.086Z,10.00
2019-05-29T20:15:20.460Z,9.80
2019-05-29T20:17:49.851Z,9.70
2019-05-29T20:20:19.219Z,9.60
2019-05-29T20:22:48.632Z,9.50
2019-05-29T20:25:18.002Z,9.40
2019-05-29T20:27:47.401Z,9.30
2019-05-29T20:30:19.091Z,9.30
2019-05-29T20:32:48.724Z,9.20
2019-05-29T20:35:18.399Z,9.20
2019-05-29T20:37:47.803Z,9.20
2019-05-29T20:40:18.601Z,9.10
2019-05-29T20:42:48.039Z,9.10
2019-05-29T20:45:18.110Z,9.00
2019-05-29T20:47:47.492Z,9.00
2019-05-29T20:50:18.266Z,8.90
2019-05-29T20:52:47.686Z,8.90
2019-05-29T20:55:17.423Z,8.80
2019-05-29T20:57:46.818Z,8.80
2019-05-29T21:00:18.486Z,8.70
2019-05-29T21:02:47.926Z,8.60
2019-05-29T21:05:17.813Z,8.50
2019-05-29T21:07:47.197Z,8.40
2019-05-29T21:10:16.944Z,8.30
2019-05-29T21:12:47.738Z,8.30
2019-05-29T21:15:18.119Z,8.20
2019-05-29T21:17:47.498Z,8.10
2019-05-29T21:20:17.200Z,8.10
2019-05-29T21:22:46.586Z,8.20
2019-05-29T21:25:19.228Z,8.20
2019-05-29T21:27:49.472Z,8.20
2019-05-29T21:30:23.566Z,8.20
2019-05-29T21:32:52.944Z,8.10
2019-05-29T21:35:22.338Z,8.10
2019-05-29T21:37:51.706Z,8.10
2019-05-29T21:40:21.103Z,8.00
2019-05-29T21:42:50.479Z,7.90
2019-05-29T21:45:19.887Z,7.90
2019-05-29T21:47:49.267Z,7.80
2019-05-29T21:50:18.661Z,7.80
2019-05-29T21:52:48.046Z,7.70
2019-05-29T21:55:17.548Z,7.70
2019-05-29T21:57:49.828Z,7.60
2019-05-29T22:00:27.060Z,7.60
2019-05-29T22:02:56.728Z,7.50
2019-05-29T22:05:26.122Z,7.40
2019-05-29T22:07:55.545Z,7.40
2019-05-29T22:10:26.317Z,7.40
2019-05-29T22:12:56.729Z,7.30
2019-05-29T22:15:26.130Z,7.30
2019-05-29T22:17:55.499Z,7.30
2019-05-29T22:20:24.894Z,7.30
2019-05-29T22:22:55.163Z,7.20
2019-05-29T22:25:24.667Z,7.10
2019-05-29T22:27:55.477Z,7.00
2019-05-29T22:30:25.143Z,7.00
2019-05-29T22:32:55.332Z,7.00
2019-05-29T22:35:24.810Z,7.10
2019-05-29T22:37:55.660Z,7.10
2019-05-29T22:40:25.175Z,7.10
2019-05-29T22:42:55.565Z,7.10
2019-05-29T22:45:25.140Z,7.00
2019-05-29T22:47:55.661Z,7.00
2019-05-29T22:50:25.246Z,6.90
2019-05-29T22:52:55.761Z,6.70
2019-05-29T22:55:25.323Z,6.60
2019-05-29T22:57:55.840Z,6.60
2019-05-29T23:00:25.404Z,6.60
2019-05-29T23:02:56.010Z,6.60
2019-05-29T23:05:25.529Z,6.50
2019-05-29T23:07:56.067Z,6.40
2019-05-29T23:10:25.486Z,6.40
2019-05-29T23:12:54.885Z,6.30
2019-05-29T23:15:24.301Z,6.30
2019-05-29T23:17:54.495Z,6.30
2019-05-29T23:20:24.075Z,6.40
2019-05-29T23:22:54.461Z,6.40
2019-05-29T23:25:23.957Z,6.40
2019-05-29T23:27:54.759Z,6.40
2019-05-29T23:30:24.350Z,6.40
2019-05-29T23:32:54.770Z,6.30
2019-05-29T23:35:24.301Z,6.20
2019-05-29T23:37:54.750Z,6.20
2019-05-29T23:40:24.377Z,6.10
2019-05-29T23:42:53.788Z,6.20
2019-05-29T23:45:23.164Z,6.20
2019-05-29T23:47:53.408Z,6.30
2019-05-29T23:50:22.926Z,6.20
2019-05-29T23:52:53.492Z,6.00
2019-05-29T23:55:22.922Z,5.90
2019-05-29T23:57:53.606Z,5.80
